Terminal Aerodrome Forecast
Issued by NWS

Home | Current Version | Previous Version | Text Only | Print | Product List | Glossary On
Versions: 1 2 3 4 5 6 7 8 9 10 11 12 13 14 15 16 17 18 19 20 21 22 23 24 25 26
000
FTUS41 KBTV 030520
TAFPBG
TAF
KPBG 030520Z 0306/0406 17012KT P6SM BKN150
     FM031300 18012G20KT P6SM SCT060 BKN150
     FM031700 20013G25KT P6SM VCSH SCT040 BKN090
     FM032000 21009G18KT 6SM +SHRA BKN040 BKN090
     FM040100 22012KT P6SM VCSH BKN060=

USA.gov is the U.S. government's official web portal to all federal, state and local government web resources and services.